sensor_id;sensor_type;location;lat;lon;timestamp;temperature;humidity
35127;DHT22;21300;52.006;5.798;2023-05-15T00:01:42;16.70;90.40
35127;DHT22;21300;52.006;5.798;2023-05-15T00:04:08;16.70;90.40
35127;DHT22;21300;52.006;5.798;2023-05-15T00:06:34;16.70;90.40
35127;DHT22;21300;52.006;5.798;2023-05-15T00:09:00;16.60;90.40
35127;DHT22;21300;52.006;5.798;2023-05-15T00:11:25;16.70;90.50
35127;DHT22;21300;52.006;5.798;2023-05-15T00:13:52;16.60;90.50
35127;DHT22;21300;52.006;5.798;2023-05-15T00:16:18;16.60;90.50
35127;DHT22;21300;52.006;5.798;2023-05-15T00:18:44;16.60;90.50
35127;DHT22;21300;52.006;5.798;2023-05-15T00:21:10;16.50;90.50
35127;DHT22;21300;52.006;5.798;2023-05-15T00:23:35;16.50;90.60
35127;DHT22;21300;52.006;5.798;2023-05-15T00:26:01;16.50;90.50
35127;DHT22;21300;52.006;5.798;2023-05-15T00:28:27;16.50;90.60
35127;DHT22;21300;52.006;5.798;2023-05-15T00:30:52;16.40;90.60
35127;DHT22;21300;52.006;5.798;2023-05-15T00:33:18;16.40;90.60
35127;DHT22;21300;52.006;5.798;2023-05-15T00:35:44;16.40;90.60
35127;DHT22;21300;52.006;5.798;2023-05-15T00:38:10;16.40;90.60
35127;DHT22;21300;52.006;5.798;2023-05-15T00:40:36;16.40;90.60
35127;DHT22;21300;52.006;5.798;2023-05-15T00:43:03;16.40;90.60
35127;DHT22;21300;52.006;5.798;2023-05-15T00:45:29;16.40;90.60
35127;DHT22;21300;52.006;5.798;2023-05-15T00:47:57;16.30;90.60
35127;DHT22;21300;52.006;5.798;2023-05-15T00:50:23;16.30;90.60
35127;DHT22;21300;52.006;5.798;2023-05-15T00:52:49;16.30;90.60
35127;DHT22;21300;52.006;5.798;2023-05-15T00:55:15;16.30;90.60
35127;DHT22;21300;52.006;5.798;2023-05-15T00:57:42;16.30;90.70
35127;DHT22;21300;52.006;5.798;2023-05-15T01:02:53;16.20;90.70
35127;DHT22;21300;52.006;5.798;2023-05-15T01:05:19;16.20;90.70
35127;DHT22;21300;52.006;5.798;2023-05-15T01:07:51;16.10;90.70
35127;DHT22;21300;52.006;5.798;2023-05-15T01:10:21;16.10;90.70
35127;DHT22;21300;52.006;5.798;2023-05-15T01:12:49;16.10;90.70
35127;DHT22;21300;52.006;5.798;2023-05-15T01:15:17;16.10;90.70
35127;DHT22;21300;52.006;5.798;2023-05-15T01:17:43;16.00;90.70
35127;DHT22;21300;52.006;5.798;2023-05-15T01:20:10;16.00;90.70
35127;DHT22;21300;52.006;5.798;2023-05-15T01:22:58;16.00;90.80
35127;DHT22;21300;52.006;5.798;2023-05-15T01:26:02;16.00;90.80
35127;DHT22;21300;52.006;5.798;2023-05-15T01:28:38;15.90;90.80
35127;DHT22;21300;52.006;5.798;2023-05-15T01:31:11;15.90;90.80
35127;DHT22;21300;52.006;5.798;2023-05-15T01:33:43;15.90;90.80
35127;DHT22;21300;52.006;5.798;2023-05-15T01:36:37;15.90;90.80
35127;DHT22;21300;52.006;5.798;2023-05-15T01:39:04;15.90;90.80
35127;DHT22;21300;52.006;5.798;2023-05-15T01:41:40;15.90;90.80
35127;DHT22;21300;52.006;5.798;2023-05-15T01:44:13;15.80;90.80
35127;DHT22;21300;52.006;5.798;2023-05-15T01:46:43;15.80;90.90
35127;DHT22;21300;52.006;5.798;2023-05-15T01:49:12;15.70;90.90
35127;DHT22;21300;52.006;5.798;2023-05-15T01:51:41;15.80;90.80
35127;DHT22;21300;52.006;5.798;2023-05-15T01:54:09;15.70;90.90
35127;DHT22;21300;52.006;5.798;2023-05-15T01:56:38;15.70;90.90
35127;DHT22;21300;52.006;5.798;2023-05-15T01:59:06;15.70;90.90
35127;DHT22;21300;52.006;5.798;2023-05-15T02:01:32;15.60;90.90
35127;DHT22;21300;52.006;5.798;2023-05-15T02:04:00;15.60;90.90
35127;DHT22;21300;52.006;5.798;2023-05-15T02:06:27;15.60;90.90
35127;DHT22;21300;52.006;5.798;2023-05-15T02:08:55;15.60;90.90
35127;DHT22;21300;52.006;5.798;2023-05-15T02:11:21;15.50;90.90
35127;DHT22;21300;52.006;5.798;2023-05-15T02:13:47;15.50;90.90
35127;DHT22;21300;52.006;5.798;2023-05-15T02:16:13;15.50;91.00
35127;DHT22;21300;52.006;5.798;2023-05-15T02:18:39;15.40;91.00
35127;DHT22;21300;52.006;5.798;2023-05-15T02:21:05;15.50;91.00
35127;DHT22;21300;52.006;5.798;2023-05-15T02:23:31;15.40;91.00
35127;DHT22;21300;52.006;5.798;2023-05-15T02:34:39;15.40;91.00
35127;DHT22;21300;52.006;5.798;2023-05-15T02:37:10;15.30;91.00
35127;DHT22;21300;52.006;5.798;2023-05-15T02:39:37;15.30;91.00
35127;DHT22;21300;52.006;5.798;2023-05-15T02:42:05;15.30;91.00
35127;DHT22;21300;52.006;5.798;2023-05-15T02:44:32;15.20;91.00
35127;DHT22;21300;52.006;5.798;2023-05-15T02:47:02;15.20;91.00
35127;DHT22;21300;52.006;5.798;2023-05-15T02:49:28;15.20;91.00
35127;DHT22;21300;52.006;5.798;2023-05-15T02:51:53;15.10;91.00
35127;DHT22;21300;52.006;5.798;2023-05-15T02:54:19;15.20;91.10
35127;DHT22;21300;52.006;5.798;2023-05-15T02:56:45;15.10;91.00
35127;DHT22;21300;52.006;5.798;2023-05-15T02:59:11;15.10;91.10
35127;DHT22;21300;52.006;5.798;2023-05-15T03:01:43;15.00;91.00
35127;DHT22;21300;52.006;5.798;2023-05-15T03:04:08;15.10;91.10
35127;DHT22;21300;52.006;5.798;2023-05-15T03:06:34;15.00;91.10
35127;DHT22;21300;52.006;5.798;2023-05-15T03:09:00;15.00;91.00
35127;DHT22;21300;52.006;5.798;2023-05-15T03:11:25;15.00;91.10
35127;DHT22;21300;52.006;5.798;2023-05-15T03:13:51;15.00;91.10
35127;DHT22;21300;52.006;5.798;2023-05-15T03:16:17;15.00;91.10
35127;DHT22;21300;52.006;5.798;2023-05-15T03:18:42;14.90;91.10
35127;DHT22;21300;52.006;5.798;2023-05-15T03:21:08;14.90;91.10
35127;DHT22;21300;52.006;5.798;2023-05-15T03:23:33;14.90;91.10
35127;DHT22;21300;52.006;5.798;2023-05-15T03:25:59;14.90;91.10
35127;DHT22;21300;52.006;5.798;2023-05-15T03:28:25;14.90;91.10
35127;DHT22;21300;52.006;5.798;2023-05-15T03:30:50;14.90;91.20
35127;DHT22;21300;52.006;5.798;2023-05-15T03:33:16;14.80;91.20
35127;DHT22;21300;52.006;5.798;2023-05-15T03:35:41;14.80;91.20
35127;DHT22;21300;52.006;5.798;2023-05-15T03:38:07;14.80;91.30
35127;DHT22;21300;52.006;5.798;2023-05-15T03:40:32;14.80;91.30
35127;DHT22;21300;52.006;5.798;2023-05-15T03:42:58;14.80;91.30
35127;DHT22;21300;52.006;5.798;2023-05-15T03:45:23;14.80;91.30
35127;DHT22;21300;52.006;5.798;2023-05-15T03:47:49;14.80;91.30
35127;DHT22;21300;52.006;5.798;2023-05-15T03:50:15;14.80;91.30
35127;DHT22;21300;52.006;5.798;2023-05-15T03:52:40;14.80;91.40
35127;DHT22;21300;52.006;5.798;2023-05-15T03:55:06;14.80;91.40
35127;DHT22;21300;52.006;5.798;2023-05-15T03:57:32;14.80;91.40
35127;DHT22;21300;52.006;5.798;2023-05-15T03:59:59;14.70;91.40
35127;DHT22;21300;52.006;5.798;2023-05-15T04:02:28;14.70;91.40
35127;DHT22;21300;52.006;5.798;2023-05-15T04:04:53;14.70;91.40
35127;DHT22;21300;52.006;5.798;2023-05-15T04:07:19;14.70;91.40
35127;DHT22;21300;52.006;5.798;2023-05-15T04:09:45;14.70;91.40
35127;DHT22;21300;52.006;5.798;2023-05-15T04:12:10;14.70;91.40
35127;DHT22;21300;52.006;5.798;2023-05-15T04:14:36;14.70;91.40
35127;DHT22;21300;52.006;5.798;2023-05-15T04:17:01;14.70;91.40
35127;DHT22;21300;52.006;5.798;2023-05-15T04:19:27;14.60;91.40
35127;DHT22;21300;52.006;5.798;2023-05-15T04:24:06;14.30;91.30
35127;DHT22;21300;52.006;5.798;2023-05-15T04:26:32;14.20;92.00
35127;DHT22;21300;52.006;5.798;2023-05-15T04:28:58;14.10;92.20
35127;DHT22;21300;52.006;5.798;2023-05-15T04:31:25;14.10;92.30
35127;DHT22;21300;52.006;5.798;2023-05-15T04:33:51;14.20;92.10
35127;DHT22;21300;52.006;5.798;2023-05-15T04:36:16;14.30;92.00
35127;DHT22;21300;52.006;5.798;2023-05-15T04:38:42;14.30;91.80
35127;DHT22;21300;52.006;5.798;2023-05-15T04:41:08;14.30;91.80
35127;DHT22;21300;52.006;5.798;2023-05-15T04:43:33;14.40;91.80
35127;DHT22;21300;52.006;5.798;2023-05-15T04:45:59;14.40;91.70
35127;DHT22;21300;52.006;5.798;2023-05-15T04:48:24;14.40;91.70
35127;DHT22;21300;52.006;5.798;2023-05-15T04:50:50;14.40;91.70
35127;DHT22;21300;52.006;5.798;2023-05-15T04:53:16;14.40;91.60
35127;DHT22;21300;52.006;5.798;2023-05-15T04:55:42;14.40;91.60
35127;DHT22;21300;52.006;5.798;2023-05-15T04:58:07;14.40;91.60
35127;DHT22;21300;52.006;5.798;2023-05-15T05:00:33;14.30;91.60
35127;DHT22;21300;52.006;5.798;2023-05-15T05:02:58;14.30;91.80
35127;DHT22;21300;52.006;5.798;2023-05-15T05:05:24;14.30;91.80
35127;DHT22;21300;52.006;5.798;2023-05-15T05:07:50;14.40;91.80
35127;DHT22;21300;52.006;5.798;2023-05-15T05:10:16;14.30;91.80
35127;DHT22;21300;52.006;5.798;2023-05-15T05:12:42;14.40;91.70
35127;DHT22;21300;52.006;5.798;2023-05-15T05:15:08;14.40;91.70
35127;DHT22;21300;52.006;5.798;2023-05-15T05:17:34;14.40;91.70
35127;DHT22;21300;52.006;5.798;2023-05-15T05:19:59;14.30;91.60
35127;DHT22;21300;52.006;5.798;2023-05-15T05:22:25;14.10;91.60
35127;DHT22;21300;52.006;5.798;2023-05-15T05:24:51;14.00;91.70
35127;DHT22;21300;52.006;5.798;2023-05-15T05:27:16;13.90;91.80
35127;DHT22;21300;52.006;5.798;2023-05-15T05:29:42;13.80;91.90
35127;DHT22;21300;52.006;5.798;2023-05-15T05:32:07;13.80;92.00
35127;DHT22;21300;52.006;5.798;2023-05-15T05:34:34;13.70;92.30
35127;DHT22;21300;52.006;5.798;2023-05-15T05:37:00;13.70;92.10
35127;DHT22;21300;52.006;5.798;2023-05-15T05:39:25;13.70;92.10
35127;DHT22;21300;52.006;5.798;2023-05-15T05:41:51;13.70;92.10
35127;DHT22;21300;52.006;5.798;2023-05-15T05:44:16;13.70;92.20
35127;DHT22;21300;52.006;5.798;2023-05-15T05:46:42;13.60;92.40
35127;DHT22;21300;52.006;5.798;2023-05-15T05:49:09;13.60;92.40
35127;DHT22;21300;52.006;5.798;2023-05-15T05:51:35;13.50;92.60
35127;DHT22;21300;52.006;5.798;2023-05-15T05:54:03;13.50;92.70
35127;DHT22;21300;52.006;5.798;2023-05-15T05:56:29;13.50;92.70
35127;DHT22;21300;52.006;5.798;2023-05-15T05:58:55;13.50;92.60
35127;DHT22;21300;52.006;5.798;2023-05-15T06:01:21;13.60;92.40
35127;DHT22;21300;52.006;5.798;2023-05-15T06:03:47;13.60;92.70
35127;DHT22;21300;52.006;5.798;2023-05-15T06:06:12;13.60;92.30
35127;DHT22;21300;52.006;5.798;2023-05-15T06:08:38;13.70;92.30
35127;DHT22;21300;52.006;5.798;2023-05-15T06:11:04;13.70;92.20
35127;DHT22;21300;52.006;5.798;2023-05-15T06:13:29;13.80;92.20
35127;DHT22;21300;52.006;5.798;2023-05-15T06:15:55;13.80;92.10
35127;DHT22;21300;52.006;5.798;2023-05-15T06:18:21;13.80;92.20
35127;DHT22;21300;52.006;5.798;2023-05-15T06:20:46;13.90;92.20
35127;DHT22;21300;52.006;5.798;2023-05-15T06:23:12;13.80;92.10
35127;DHT22;21300;52.006;5.798;2023-05-15T06:25:37;13.80;92.00
35127;DHT22;21300;52.006;5.798;2023-05-15T06:28:03;13.90;92.10
35127;DHT22;21300;52.006;5.798;2023-05-15T06:30:29;14.00;92.00
35127;DHT22;21300;52.006;5.798;2023-05-15T06:32:55;14.00;91.80
35127;DHT22;21300;52.006;5.798;2023-05-15T06:35:20;14.10;91.60
35127;DHT22;21300;52.006;5.798;2023-05-15T06:37:48;14.20;91.50
35127;DHT22;21300;52.006;5.798;2023-05-15T06:40:14;14.30;91.40
35127;DHT22;21300;52.006;5.798;2023-05-15T06:42:40;14.30;91.70
35127;DHT22;21300;52.006;5.798;2023-05-15T06:45:06;14.40;91.30
35127;DHT22;21300;52.006;5.798;2023-05-15T06:47:32;14.40;91.20
35127;DHT22;21300;52.006;5.798;2023-05-15T06:49:57;14.50;91.20
35127;DHT22;21300;52.006;5.798;2023-05-15T06:52:23;14.50;91.10
35127;DHT22;21300;52.006;5.798;2023-05-15T06:54:49;14.60;91.10
35127;DHT22;21300;52.006;5.798;2023-05-15T06:57:14;14.60;91.00
35127;DHT22;21300;52.006;5.798;2023-05-15T06:59:40;14.70;91.00
35127;DHT22;21300;52.006;5.798;2023-05-15T07:02:06;14.70;90.90
35127;DHT22;21300;52.006;5.798;2023-05-15T07:04:31;14.70;90.90
35127;DHT22;21300;52.006;5.798;2023-05-15T07:06:57;14.80;90.90
35127;DHT22;21300;52.006;5.798;2023-05-15T07:09:23;14.90;90.90
35127;DHT22;21300;52.006;5.798;2023-05-15T07:11:49;14.90;90.80
35127;DHT22;21300;52.006;5.798;2023-05-15T07:14:15;15.00;90.80
35127;DHT22;21300;52.006;5.798;2023-05-15T07:16:40;15.00;90.70
35127;DHT22;21300;52.006;5.798;2023-05-15T07:19:07;15.00;90.70
35127;DHT22;21300;52.006;5.798;2023-05-15T07:21:33;15.10;90.70
35127;DHT22;21300;52.006;5.798;2023-05-15T07:23:59;15.10;90.60
35127;DHT22;21300;52.006;5.798;2023-05-15T07:26:24;15.20;90.60
35127;DHT22;21300;52.006;5.798;2023-05-15T07:28:50;15.20;90.60
35127;DHT22;21300;52.006;5.798;2023-05-15T07:31:16;15.30;90.60
35127;DHT22;21300;52.006;5.798;2023-05-15T07:33:41;15.30;90.50
35127;DHT22;21300;52.006;5.798;2023-05-15T07:36:07;15.30;90.50
35127;DHT22;21300;52.006;5.798;2023-05-15T07:38:32;15.40;90.50
35127;DHT22;21300;52.006;5.798;2023-05-15T07:40:58;15.40;90.50
35127;DHT22;21300;52.006;5.798;2023-05-15T07:43:24;15.40;90.40
35127;DHT22;21300;52.006;5.798;2023-05-15T07:45:49;15.50;90.40
35127;DHT22;21300;52.006;5.798;2023-05-15T07:48:16;15.60;90.20
35127;DHT22;21300;52.006;5.798;2023-05-15T07:50:43;15.60;90.20
35127;DHT22;21300;52.006;5.798;2023-05-15T07:53:11;15.60;90.20
35127;DHT22;21300;52.006;5.798;2023-05-15T07:55:36;15.70;90.10
35127;DHT22;21300;52.006;5.798;2023-05-15T07:58:02;15.70;90.00
35127;DHT22;21300;52.006;5.798;2023-05-15T08:00:28;15.80;90.10
35127;DHT22;21300;52.006;5.798;2023-05-15T08:02:53;15.80;90.10
35127;DHT22;21300;52.006;5.798;2023-05-15T08:05:19;15.90;90.10
35127;DHT22;21300;52.006;5.798;2023-05-15T08:07:45;15.90;90.10
35127;DHT22;21300;52.006;5.798;2023-05-15T08:10:10;15.90;90.00
35127;DHT22;21300;52.006;5.798;2023-05-15T08:12:36;16.00;90.00
35127;DHT22;21300;52.006;5.798;2023-05-15T08:15:02;16.00;90.00
35127;DHT22;21300;52.006;5.798;2023-05-15T08:17:28;16.00;90.00
35127;DHT22;21300;52.006;5.798;2023-05-15T08:19:53;16.10;90.00
35127;DHT22;21300;52.006;5.798;2023-05-15T08:22:19;16.10;90.00
35127;DHT22;21300;52.006;5.798;2023-05-15T08:24:45;16.10;90.00
35127;DHT22;21300;52.006;5.798;2023-05-15T08:27:10;16.20;90.00
35127;DHT22;21300;52.006;5.798;2023-05-15T08:29:36;16.20;90.00
35127;DHT22;21300;52.006;5.798;2023-05-15T08:32:02;16.30;90.00
35127;DHT22;21300;52.006;5.798;2023-05-15T08:34:28;16.30;90.00
35127;DHT22;21300;52.006;5.798;2023-05-15T08:36:54;16.30;90.00
35127;DHT22;21300;52.006;5.798;2023-05-15T08:39:21;16.40;90.00
35127;DHT22;21300;52.006;5.798;2023-05-15T08:44:25;16.40;90.00
35127;DHT22;21300;52.006;5.798;2023-05-15T08:46:52;16.50;90.00
35127;DHT22;21300;52.006;5.798;2023-05-15T08:49:46;16.50;90.00
35127;DHT22;21300;52.006;5.798;2023-05-15T08:52:14;16.50;89.90
35127;DHT22;21300;52.006;5.798;2023-05-15T08:54:40;16.60;90.00
35127;DHT22;21300;52.006;5.798;2023-05-15T08:57:06;16.60;89.60
35127;DHT22;21300;52.006;5.798;2023-05-15T08:59:33;16.70;90.00
35127;DHT22;21300;52.006;5.798;2023-05-15T09:01:59;16.70;90.00
35127;DHT22;21300;52.006;5.798;2023-05-15T09:04:24;16.80;90.00
35127;DHT22;21300;52.006;5.798;2023-05-15T09:06:50;16.80;90.00
35127;DHT22;21300;52.006;5.798;2023-05-15T09:09:17;16.80;89.60
35127;DHT22;21300;52.006;5.798;2023-05-15T09:11:44;16.90;89.70
35127;DHT22;21300;52.006;5.798;2023-05-15T09:14:10;16.90;90.00
35127;DHT22;21300;52.006;5.798;2023-05-15T09:16:37;16.90;90.20
35127;DHT22;21300;52.006;5.798;2023-05-15T09:19:04;17.00;90.30
35127;DHT22;21300;52.006;5.798;2023-05-15T09:21:31;17.00;90.20
35127;DHT22;21300;52.006;5.798;2023-05-15T09:24:19;17.10;90.00
35127;DHT22;21300;52.006;5.798;2023-05-15T09:27:06;17.10;90.00
35127;DHT22;21300;52.006;5.798;2023-05-15T09:29:34;17.20;90.10
35127;DHT22;21300;52.006;5.798;2023-05-15T09:32:08;17.20;90.20
35127;DHT22;21300;52.006;5.798;2023-05-15T09:34:38;17.30;90.30
35127;DHT22;21300;52.006;5.798;2023-05-15T09:37:06;17.30;90.40
35127;DHT22;21300;52.006;5.798;2023-05-15T09:39:34;17.40;90.30
35127;DHT22;21300;52.006;5.798;2023-05-15T09:42:11;17.50;90.10
35127;DHT22;21300;52.006;5.798;2023-05-15T09:44:42;17.50;90.30
35127;DHT22;21300;52.006;5.798;2023-05-15T09:47:12;17.60;90.00
35127;DHT22;21300;52.006;5.798;2023-05-15T09:49:39;17.60;90.10
35127;DHT22;21300;52.006;5.798;2023-05-15T09:52:08;17.70;90.30
35127;DHT22;21300;52.006;5.798;2023-05-15T09:54:35;17.70;90.30
35127;DHT22;21300;52.006;5.798;2023-05-15T09:57:12;17.70;90.20
35127;DHT22;21300;52.006;5.798;2023-05-15T09:59:46;17.80;90.30
35127;DHT22;21300;52.006;5.798;2023-05-15T10:02:24;17.80;90.20
35127;DHT22;21300;52.006;5.798;2023-05-15T10:04:56;17.90;90.10
35127;DHT22;21300;52.006;5.798;2023-05-15T10:07:35;18.00;90.30
35127;DHT22;21300;52.006;5.798;2023-05-15T10:10:03;18.00;90.30
35127;DHT22;21300;52.006;5.798;2023-05-15T10:12:30;18.00;90.20
35127;DHT22;21300;52.006;5.798;2023-05-15T10:14:57;18.10;90.30
35127;DHT22;21300;52.006;5.798;2023-05-15T10:17:27;18.10;90.30
35127;DHT22;21300;52.006;5.798;2023-05-15T10:19:52;18.10;90.00
35127;DHT22;21300;52.006;5.798;2023-05-15T10:22:21;18.20;89.50
35127;DHT22;21300;52.006;5.798;2023-05-15T10:24:59;18.20;89.80
35127;DHT22;21300;52.006;5.798;2023-05-15T10:27:27;18.30;89.80
35127;DHT22;21300;52.006;5.798;2023-05-15T10:29:53;18.30;90.10
35127;DHT22;21300;52.006;5.798;2023-05-15T10:32:21;18.30;89.80
35127;DHT22;21300;52.006;5.798;2023-05-15T10:34:47;18.40;89.90
35127;DHT22;21300;52.006;5.798;2023-05-15T10:37:13;18.40;89.80
35127;DHT22;21300;52.006;5.798;2023-05-15T10:39:40;18.50;89.60
35127;DHT22;21300;52.006;5.798;2023-05-15T10:42:07;18.50;89.80
35127;DHT22;21300;52.006;5.798;2023-05-15T10:44:33;18.50;89.50
35127;DHT22;21300;52.006;5.798;2023-05-15T10:46:59;18.50;89.70
35127;DHT22;21300;52.006;5.798;2023-05-15T10:49:25;18.60;89.50
35127;DHT22;21300;52.006;5.798;2023-05-15T10:51:51;18.60;90.00
35127;DHT22;21300;52.006;5.798;2023-05-15T10:54:17;18.70;89.80
35127;DHT22;21300;52.006;5.798;2023-05-15T10:56:43;18.70;89.90
35127;DHT22;21300;52.006;5.798;2023-05-15T10:59:10;18.70;89.60
35127;DHT22;21300;52.006;5.798;2023-05-15T11:01:37;18.80;89.50
35127;DHT22;21300;52.006;5.798;2023-05-15T11:06:33;18.80;89.70
35127;DHT22;21300;52.006;5.798;2023-05-15T11:11:55;18.90;89.60
35127;DHT22;21300;52.006;5.798;2023-05-15T11:17:11;19.00;89.60
35127;DHT22;21300;52.006;5.798;2023-05-15T11:25:01;19.10;89.50
35127;DHT22;21300;52.006;5.798;2023-05-15T11:27:30;19.10;89.50
35127;DHT22;21300;52.006;5.798;2023-05-15T11:30:16;19.10;89.40
35127;DHT22;21300;52.006;5.798;2023-05-15T11:35:39;19.20;89.30
35127;DHT22;21300;52.006;5.798;2023-05-15T11:40:54;19.20;89.10
35127;DHT22;21300;52.006;5.798;2023-05-15T11:43:36;19.30;89.10
35127;DHT22;21300;52.006;5.798;2023-05-15T11:48:44;19.30;89.00
35127;DHT22;21300;52.006;5.798;2023-05-15T11:51:22;19.40;89.00
35127;DHT22;21300;52.006;5.798;2023-05-15T11:53:50;19.40;88.90
35127;DHT22;21300;52.006;5.798;2023-05-15T11:56:24;19.40;88.70
35127;DHT22;21300;52.006;5.798;2023-05-15T11:58:54;19.40;88.50
35127;DHT22;21300;52.006;5.798;2023-05-15T12:01:21;19.40;88.50
35127;DHT22;21300;52.006;5.798;2023-05-15T12:03:47;19.50;88.50
35127;DHT22;21300;52.006;5.798;2023-05-15T12:06:14;19.50;88.40
35127;DHT22;21300;52.006;5.798;2023-05-15T12:08:40;19.50;88.20
35127;DHT22;21300;52.006;5.798;2023-05-15T12:11:07;19.60;88.10
35127;DHT22;21300;52.006;5.798;2023-05-15T12:13:33;19.60;86.10
35127;DHT22;21300;52.006;5.798;2023-05-15T12:16:03;19.50;84.40
35127;DHT22;21300;52.006;5.798;2023-05-15T12:18:30;19.50;85.00
35127;DHT22;21300;52.006;5.798;2023-05-15T12:20:56;19.50;85.30
35127;DHT22;21300;52.006;5.798;2023-05-15T12:23:23;19.50;82.50
35127;DHT22;21300;52.006;5.798;2023-05-15T12:25:52;19.50;83.60
35127;DHT22;21300;52.006;5.798;2023-05-15T12:28:21;19.50;83.90
35127;DHT22;21300;52.006;5.798;2023-05-15T12:30:47;19.60;84.20
35127;DHT22;21300;52.006;5.798;2023-05-15T12:33:13;19.60;84.50
35127;DHT22;21300;52.006;5.798;2023-05-15T12:35:43;19.60;85.30
35127;DHT22;21300;52.006;5.798;2023-05-15T12:38:14;19.60;84.60
35127;DHT22;21300;52.006;5.798;2023-05-15T12:40:42;19.70;84.60
35127;DHT22;21300;52.006;5.798;2023-05-15T12:43:09;19.70;84.70
35127;DHT22;21300;52.006;5.798;2023-05-15T12:45:37;19.70;84.80
35127;DHT22;21300;52.006;5.798;2023-05-15T12:48:03;19.70;84.70
35127;DHT22;21300;52.006;5.798;2023-05-15T12:50:32;19.70;84.90
35127;DHT22;21300;52.006;5.798;2023-05-15T12:53:02;19.70;84.80
35127;DHT22;21300;52.006;5.798;2023-05-15T12:55:32;19.80;85.00
35127;DHT22;21300;52.006;5.798;2023-05-15T12:58:04;19.80;85.00
35127;DHT22;21300;52.006;5.798;2023-05-15T13:00:35;19.80;84.90
35127;DHT22;21300;52.006;5.798;2023-05-15T13:03:01;19.80;84.90
35127;DHT22;21300;52.006;5.798;2023-05-15T13:05:29;19.80;84.90
35127;DHT22;21300;52.006;5.798;2023-05-15T13:07:58;19.80;84.80
35127;DHT22;21300;52.006;5.798;2023-05-15T13:10:24;19.80;84.80
35127;DHT22;21300;52.006;5.798;2023-05-15T13:12:51;19.80;84.70
35127;DHT22;21300;52.006;5.798;2023-05-15T13:15:37;19.90;84.80
35127;DHT22;21300;52.006;5.798;2023-05-15T13:18:07;19.80;84.70
35127;DHT22;21300;52.006;5.798;2023-05-15T13:20:35;19.90;84.70
35127;DHT22;21300;52.006;5.798;2023-05-15T13:23:02;19.90;84.60
35127;DHT22;21300;52.006;5.798;2023-05-15T13:25:28;19.90;84.40
35127;DHT22;21300;52.006;5.798;2023-05-15T13:27:57;19.90;84.30
35127;DHT22;21300;52.006;5.798;2023-05-15T13:30:23;19.90;84.30
35127;DHT22;21300;52.006;5.798;2023-05-15T13:32:51;19.90;84.30
35127;DHT22;21300;52.006;5.798;2023-05-15T13:35:16;20.00;84.10
35127;DHT22;21300;52.006;5.798;2023-05-15T13:37:42;20.00;84.10
35127;DHT22;21300;52.006;5.798;2023-05-15T13:40:09;20.00;84.10
35127;DHT22;21300;52.006;5.798;2023-05-15T13:42:36;20.00;84.00
35127;DHT22;21300;52.006;5.798;2023-05-15T13:45:08;20.00;83.90
35127;DHT22;21300;52.006;5.798;2023-05-15T13:47:34;20.00;83.80
35127;DHT22;21300;52.006;5.798;2023-05-15T13:50:01;20.00;83.70
35127;DHT22;21300;52.006;5.798;2023-05-15T13:52:27;20.10;83.50
35127;DHT22;21300;52.006;5.798;2023-05-15T13:54:53;20.10;83.50
35127;DHT22;21300;52.006;5.798;2023-05-15T13:57:20;20.10;83.30
35127;DHT22;21300;52.006;5.798;2023-05-15T13:59:46;20.10;83.90
35127;DHT22;21300;52.006;5.798;2023-05-15T14:02:11;20.10;83.20
35127;DHT22;21300;52.006;5.798;2023-05-15T14:04:37;20.10;83.00
35127;DHT22;21300;52.006;5.798;2023-05-15T14:07:02;20.20;83.00
35127;DHT22;21300;52.006;5.798;2023-05-15T14:09:28;20.20;82.90
35127;DHT22;21300;52.006;5.798;2023-05-15T14:11:54;20.20;82.80
35127;DHT22;21300;52.006;5.798;2023-05-15T14:14:19;20.20;82.70
35127;DHT22;21300;52.006;5.798;2023-05-15T14:16:45;20.20;82.60
35127;DHT22;21300;52.006;5.798;2023-05-15T14:19:11;20.20;82.50
35127;DHT22;21300;52.006;5.798;2023-05-15T14:21:38;20.20;82.50
35127;DHT22;21300;52.006;5.798;2023-05-15T14:24:04;20.30;82.40
35127;DHT22;21300;52.006;5.798;2023-05-15T14:26:30;20.20;82.30
35127;DHT22;21300;52.006;5.798;2023-05-15T14:28:56;20.20;82.30
35127;DHT22;21300;52.006;5.798;2023-05-15T14:31:21;20.20;82.20
35127;DHT22;21300;52.006;5.798;2023-05-15T14:33:47;20.30;82.30
35127;DHT22;21300;52.006;5.798;2023-05-15T14:36:13;20.30;82.30
35127;DHT22;21300;52.006;5.798;2023-05-15T14:38:39;20.30;81.70
35127;DHT22;21300;52.006;5.798;2023-05-15T14:41:05;20.00;75.80
35127;DHT22;21300;52.006;5.798;2023-05-15T14:43:30;19.90;75.70
35127;DHT22;21300;52.006;5.798;2023-05-15T14:45:56;19.80;75.60
35127;DHT22;21300;52.006;5.798;2023-05-15T14:48:21;19.70;76.80
35127;DHT22;21300;52.006;5.798;2023-05-15T14:50:47;19.70;77.40
35127;DHT22;21300;52.006;5.798;2023-05-15T14:53:13;19.80;77.60
35127;DHT22;21300;52.006;5.798;2023-05-15T14:55:38;19.90;77.80
35127;DHT22;21300;52.006;5.798;2023-05-15T14:58:04;20.00;78.00
35127;DHT22;21300;52.006;5.798;2023-05-15T15:00:29;20.00;78.20
35127;DHT22;21300;52.006;5.798;2023-05-15T15:02:55;20.10;78.40
35127;DHT22;21300;52.006;5.798;2023-05-15T15:05:20;20.10;78.50
35127;DHT22;21300;52.006;5.798;2023-05-15T15:08:12;20.10;78.80
35127;DHT22;21300;52.006;5.798;2023-05-15T15:10:39;20.10;78.90
35127;DHT22;21300;52.006;5.798;2023-05-15T15:13:06;20.10;79.10
35127;DHT22;21300;52.006;5.798;2023-05-15T15:15:33;20.10;79.30
35127;DHT22;21300;52.006;5.798;2023-05-15T15:17:59;20.00;79.50
35127;DHT22;21300;52.006;5.798;2023-05-15T15:20:25;20.10;79.70
35127;DHT22;21300;52.006;5.798;2023-05-15T15:22:52;20.00;79.70
35127;DHT22;21300;52.006;5.798;2023-05-15T15:25:18;20.00;79.90
35127;DHT22;21300;52.006;5.798;2023-05-15T15:27:45;20.00;80.00
35127;DHT22;21300;52.006;5.798;2023-05-15T15:30:11;20.00;80.10
35127;DHT22;21300;52.006;5.798;2023-05-15T15:32:38;20.00;80.30
35127;DHT22;21300;52.006;5.798;2023-05-15T15:35:04;20.10;80.30
35127;DHT22;21300;52.006;5.798;2023-05-15T15:37:31;20.00;80.40
35127;DHT22;21300;52.006;5.798;2023-05-15T15:39:57;20.00;80.60
35127;DHT22;21300;52.006;5.798;2023-05-15T15:42:23;20.00;80.50
35127;DHT22;21300;52.006;5.798;2023-05-15T15:44:49;20.00;80.70
35127;DHT22;21300;52.006;5.798;2023-05-15T15:47:14;20.00;80.70
35127;DHT22;21300;52.006;5.798;2023-05-15T15:49:40;20.00;80.80
35127;DHT22;21300;52.006;5.798;2023-05-15T15:52:07;20.00;80.90
35127;DHT22;21300;52.006;5.798;2023-05-15T15:54:33;20.00;81.00
35127;DHT22;21300;52.006;5.798;2023-05-15T15:56:59;20.00;81.00
35127;DHT22;21300;52.006;5.798;2023-05-15T15:59:24;20.00;81.10
35127;DHT22;21300;52.006;5.798;2023-05-15T16:01:50;20.00;81.10
35127;DHT22;21300;52.006;5.798;2023-05-15T16:04:15;20.00;81.10
35127;DHT22;21300;52.006;5.798;2023-05-15T16:06:41;20.00;81.20
35127;DHT22;21300;52.006;5.798;2023-05-15T16:09:07;20.00;81.30